Time;durP1;ratioP1;P1;durP2;ratioP2;P2;SDS_P1;SDS_P2;PMS_P1;PMS_P2;Temp;Humidity;BMP_temperature;BMP_pressure;BME280_temperature;BME280_humidity;BME280_pressure;Samples;Min_cycle;Max_cycle;Signal;HPM_P1;HPM_P2
2023/04/10 00:00:15;;;;;;;12.50;8.97;;;7.80;1.00;;;;;;5043855;28;20459;-79
2023/04/10 00:02:43;;;;;;;14.83;10.57;;;7.70;1.00;;;;;;5044203;28;20545;-81
2023/04/10 00:05:10;;;;;;;12.57;10.00;;;7.70;1.00;;;;;;5043757;28;20511;-80
2023/04/10 00:07:37;;;;;;;12.27;9.33;;;7.70;99.90;;;;;;5044220;28;20465;-83
2023/04/10 00:10:05;;;;;;;14.33;9.70;;;7.80;1.00;;;;;;5042980;28;20509;-80
2023/04/10 00:12:35;;;;;;;12.33;9.60;;;7.80;1.00;;;;;;5043551;28;20474;-80
2023/04/10 00:15:04;;;;;;;17.07;12.13;;;7.70;1.00;;;;;;5043220;28;20457;-80
2023/04/10 00:17:31;;;;;;;13.47;9.97;;;7.70;99.90;;;;;;5043518;28;20459;-81
2023/04/10 00:19:59;;;;;;;17.30;12.23;;;7.70;99.90;;;;;;5042675;28;20450;-81
2023/04/10 00:22:26;;;;;;;14.53;10.93;;;7.70;1.00;;;;;;5043016;28;20460;-80
2023/04/10 00:24:53;;;;;;;17.00;12.70;;;7.70;1.00;;;;;;5043869;28;20535;-81
2023/04/10 00:27:20;;;;;;;17.00;12.20;;;7.80;99.90;;;;;;5043953;28;20533;-82
2023/04/10 00:29:48;;;;;;;14.47;10.40;;;7.80;99.90;;;;;;5042977;28;20491;-81
2023/04/10 00:32:15;;;;;;;17.63;12.90;;;7.80;99.90;;;;;;5022901;28;20462;-80
2023/04/10 00:34:41;;;;;;;17.07;11.53;;;7.70;99.90;;;;;;5039470;28;20456;-82
2023/04/10 00:37:08;;;;;;;16.23;13.07;;;7.70;1.00;;;;;;5043902;28;20789;-81
2023/04/10 00:39:36;;;;;;;18.03;12.50;;;7.70;1.00;;;;;;5044006;28;20529;-80
2023/04/10 00:42:08;;;;;;;17.07;12.20;;;7.70;1.00;;;;;;5042854;28;20546;-79
2023/04/10 00:44:36;;;;;;;20.83;13.20;;;7.70;1.00;;;;;;5043994;28;20453;-81
2023/04/10 00:47:06;;;;;;;18.37;13.03;;;7.70;1.00;;;;;;5044265;28;20453;-80
2023/04/10 00:49:33;;;;;;;15.80;11.53;;;7.70;1.00;;;;;;5043284;28;20515;-82
2023/04/10 00:52:00;;;;;;;17.90;13.17;;;7.70;1.00;;;;;;5042349;28;20705;-81
2023/04/10 00:54:29;;;;;;;19.40;14.50;;;7.70;1.00;;;;;;5043125;28;20532;-81
2023/04/10 00:56:57;;;;;;;19.13;13.30;;;7.70;1.00;;;;;;5043169;28;20459;-81
2023/04/10 00:59:24;;;;;;;17.63;13.70;;;7.70;1.00;;;;;;5044034;28;20491;-80
2023/04/10 01:01:51;;;;;;;18.43;14.20;;;7.70;99.90;;;;;;5042988;28;20480;-81
2023/04/10 01:04:19;;;;;;;18.30;13.60;;;7.70;99.90;;;;;;5043735;28;20527;-80
2023/04/10 01:06:55;;;;;;;20.83;14.60;;;7.70;99.90;;;;;;5044826;28;20488;-80
2023/04/10 01:09:40;;;;;;;20.93;14.40;;;7.70;72.80;;;;;;5044324;28;20450;-81
2023/04/10 01:12:17;;;;;;;15.80;12.73;;;7.70;97.30;;;;;;5043331;28;20474;-81
2023/04/10 01:14:53;;;;;;;17.90;14.90;;;7.60;99.90;;;;;;5026921;28;20464;-81
2023/04/10 01:17:28;;;;;;;20.70;13.70;;;7.60;99.90;;;;;;5044303;28;20451;-81
2023/04/10 01:20:04;;;;;;;18.10;13.67;;;7.60;99.90;;;;;;5048518;28;20508;-81
2023/04/10 01:22:36;;;;;;;18.20;13.93;;;7.60;1.00;;;;;;5047374;28;20814;-80
2023/04/10 01:25:27;;;;;;;19.10;14.70;;;7.60;1.00;;;;;;5048435;28;20473;-81
2023/04/10 01:28:07;;;;;;;18.57;13.30;;;7.60;99.90;;;;;;5048071;28;20481;-82
2023/04/10 01:30:37;;;;;;;18.67;13.40;;;7.60;99.90;;;;;;5027599;28;20549;-81
2023/04/10 01:33:09;;;;;;;19.00;14.07;;;7.60;99.90;;;;;;5039803;28;20475;-82
2023/04/10 01:35:37;;;;;;;17.80;13.87;;;7.60;99.90;;;;;;5046948;28;20535;-80
2023/04/10 01:38:06;;;;;;;19.80;14.87;;;7.60;99.90;;;;;;5047081;28;20835;-80
2023/04/10 01:40:36;;;;;;;18.90;13.90;;;7.60;99.90;;;;;;5046624;28;20548;-81
2023/04/10 01:43:07;;;;;;;22.77;15.50;;;7.60;1.00;;;;;;5047153;28;20518;-81
2023/04/10 01:45:36;;;;;;;18.50;12.90;;;7.60;1.00;;;;;;5048141;28;20475;-81
2023/04/10 01:48:03;;;;;;;19.23;13.67;;;7.60;1.00;;;;;;5045142;28;21030;-81
2023/04/10 01:50:32;;;;;;;17.03;14.07;;;7.50;1.00;;;;;;5046248;28;20481;-80
2023/04/10 01:53:00;;;;;;;22.70;15.47;;;7.50;83.90;;;;;;5046653;28;21008;-81
2023/04/10 01:55:27;;;;;;;16.97;13.07;;;7.50;1.00;;;;;;5046863;28;20995;-82
2023/04/10 01:57:55;;;;;;;21.40;13.97;;;7.50;1.00;;;;;;5045305;28;20463;-81
2023/04/10 02:00:22;;;;;;;19.37;14.00;;;7.40;14.70;;;;;;5045641;28;20544;-80
2023/04/10 02:02:50;;;;;;;21.07;14.40;;;7.50;1.00;;;;;;5045129;28;20882;-82
2023/04/10 02:05:17;;;;;;;17.40;12.80;;;7.40;1.00;;;;;;5046626;28;20800;-81
2023/04/10 02:07:49;;;;;;;16.60;12.90;;;7.40;1.00;;;;;;5045286;28;20459;-80
2023/04/10 02:10:22;;;;;;;19.37;13.20;;;7.40;1.00;;;;;;5045888;28;20455;-81
2023/04/10 02:12:52;;;;;;;18.57;13.67;;;7.40;1.00;;;;;;5044723;28;20449;-81
2023/04/10 02:15:21;;;;;;;19.27;13.53;;;7.40;1.00;;;;;;5045717;28;20467;-80
2023/04/10 02:17:51;;;;;;;17.23;12.70;;;7.40;1.00;;;;;;5044849;28;20461;-82
2023/04/10 02:20:18;;;;;;;16.40;12.40;;;7.30;1.00;;;;;;5045451;28;20475;-82
2023/04/10 02:22:46;;;;;;;19.20;13.20;;;7.30;99.90;;;;;;5044859;28;20524;-81
2023/04/10 02:25:13;;;;;;;16.60;12.00;;;7.30;1.00;;;;;;5044698;28;20481;-81
2023/04/10 02:27:41;;;;;;;18.57;13.07;;;7.30;1.00;;;;;;5044686;28;20459;-81
2023/04/10 02:30:09;;;;;;;18.27;12.50;;;7.20;1.00;;;;;;5044069;28;20459;-81
2023/04/10 02:32:36;;;;;;;18.67;13.77;;;7.20;1.00;;;;;;5044588;28;20457;-79
2023/04/10 02:35:05;;;;;;;18.40;12.63;;;7.20;1.00;;;;;;5045056;28;20460;-82
2023/04/10 02:37:32;;;;;;;15.80;12.50;;;7.20;1.00;;;;;;5043806;28;20457;-80
2023/04/10 02:39:59;;;;;;;16.97;12.70;;;7.20;1.00;;;;;;5044454;28;20490;-80
2023/04/10 02:42:26;;;;;;;12.83;10.73;;;7.20;1.00;;;;;;5043406;28;20463;-81
2023/04/10 02:44:52;;;;;;;17.70;12.70;;;7.10;1.20;;;;;;5043777;28;20510;-81
2023/04/10 02:47:19;;;;;;;18.20;12.70;;;7.10;99.90;;;;;;5044056;28;21052;-81
2023/04/10 02:49:47;;;;;;;17.37;12.07;;;7.10;99.90;;;;;;5044554;28;20471;-82
2023/04/10 02:52:16;;;;;;;16.57;11.50;;;7.10;99.90;;;;;;5043184;28;20483;-80
2023/04/10 02:54:42;;;;;;;19.80;12.23;;;7.10;99.90;;;;;;5044130;28;20472;-82
2023/04/10 02:57:09;;;;;;;18.53;12.47;;;7.10;99.90;;;;;;5043503;28;20685;-80
2023/04/10 02:59:36;;;;;;;17.33;11.90;;;7.00;99.90;;;;;;5043426;28;20453;-81
2023/04/10 03:02:03;;;;;;;16.87;12.10;;;7.00;99.90;;;;;;5042589;28;20480;-81
2023/04/10 03:04:32;;;;;;;16.20;11.30;;;7.00;99.90;;;;;;5043840;28;21077;-81
2023/04/10 03:06:59;;;;;;;15.40;11.80;;;7.00;99.90;;;;;;5043643;28;20481;-81
2023/04/10 03:09:27;;;;;;;17.10;11.40;;;7.00;99.90;;;;;;5044239;28;20475;-81
2023/04/10 03:11:54;;;;;;;13.30;10.30;;;7.00;99.90;;;;;;5042466;28;20910;-80
2023/04/10 03:14:20;;;;;;;14.30;10.80;;;7.00;99.90;;;;;;5043436;28;20452;-81
2023/04/10 03:16:47;;;;;;;15.57;10.67;;;7.00;99.90;;;;;;5043423;28;20428;-81
2023/04/10 03:19:14;;;;;;;14.83;10.13;;;7.00;99.90;;;;;;5043340;28;20551;-81
2023/04/10 03:21:41;;;;;;;17.60;10.43;;;7.00;99.90;;;;;;5042283;28;20550;-82
2023/04/10 03:24:08;;;;;;;12.40;10.40;;;7.00;99.90;;;;;;5042836;28;20498;-80
2023/04/10 03:26:36;;;;;;;15.70;11.40;;;7.00;99.90;;;;;;5043756;28;20619;-80
2023/04/10 03:29:03;;;;;;;15.10;11.23;;;6.90;99.90;;;;;;5043401;28;20536;-81
2023/04/10 03:31:30;;;;;;;13.70;10.80;;;6.90;99.90;;;;;;5040388;28;20477;-80
2023/04/10 03:33:57;;;;;;;12.83;10.10;;;6.90;99.90;;;;;;5043392;28;20462;-80
2023/04/10 03:36:23;;;;;;;13.97;9.13;;;6.90;99.90;;;;;;5043185;28;20452;-81
2023/04/10 03:38:51;;;;;;;13.00;10.10;;;6.90;99.90;;;;;;5042201;28;20453;-81
2023/04/10 03:41:18;;;;;;;16.63;11.10;;;6.90;99.90;;;;;;5038629;28;20508;-82
2023/04/10 03:43:46;;;;;;;11.77;9.73;;;6.90;99.90;;;;;;5043238;28;20544;-81
2023/04/10 03:46:13;;;;;;;15.00;9.77;;;6.90;99.90;;;;;;5042326;28;20547;-81
2023/04/10 03:48:40;;;;;;;13.60;9.60;;;6.80;99.90;;;;;;5043399;28;20454;-81
2023/04/10 03:51:07;;;;;;;13.37;9.77;;;6.80;99.90;;;;;;5055083;23;20464;-83
2023/04/10 03:53:35;;;;;;;12.17;8.97;;;6.80;99.90;;;;;;5021959;28;20472;-84
2023/04/10 03:56:01;;;;;;;13.40;9.77;;;6.80;99.90;;;;;;5009380;28;20458;-82
2023/04/10 03:58:28;;;;;;;14.37;10.13;;;6.90;99.90;;;;;;5009010;28;20468;-83
2023/04/10 04:00:57;;;;;;;10.57;7.93;;;6.90;99.90;;;;;;5008203;28;20456;-80
2023/04/10 04:03:23;;;;;;;11.93;9.40;;;6.80;99.90;;;;;;5031636;28;20458;-78
2023/04/10 04:05:51;;;;;;;14.20;9.17;;;6.80;99.90;;;;;;5028324;28;20487;-80
2023/04/10 04:08:17;;;;;;;10.77;8.20;;;6.80;99.90;;;;;;5028745;28;20493;-81
2023/04/10 04:10:44;;;;;;;14.50;8.93;;;6.80;99.90;;;;;;5022925;28;20792;-79
2023/04/10 04:13:11;;;;;;;11.07;8.63;;;6.80;99.90;;;;;;5035632;28;20452;-79
2023/04/10 04:15:38;;;;;;;13.80;9.00;;;6.70;99.90;;;;;;5027468;28;20480;-80
2023/04/10 04:18:06;;;;;;;10.83;7.83;;;6.70;99.90;;;;;;5014493;28;20883;-81
2023/04/10 04:20:33;;;;;;;13.57;9.83;;;6.70;99.90;;;;;;5024397;28;20456;-79
2023/04/10 04:23:00;;;;;;;11.60;8.67;;;6.60;99.90;;;;;;5017095;28;20594;-77
2023/04/10 04:25:27;;;;;;;11.30;8.00;;;6.60;99.90;;;;;;5017638;28;20452;-79
2023/04/10 04:27:53;;;;;;;13.97;9.80;;;6.60;99.90;;;;;;5031155;28;20449;-80
2023/04/10 04:30:20;;;;;;;10.90;7.03;;;6.50;99.90;;;;;;5015155;28;20452;-78
2023/04/10 04:32:47;;;;;;;11.40;7.87;;;6.50;99.90;;;;;;5031888;28;20476;-78
2023/04/10 04:35:15;;;;;;;10.17;8.30;;;6.50;99.90;;;;;;5032525;28;21048;-80
2023/04/10 04:37:42;;;;;;;10.40;8.10;;;6.50;99.90;;;;;;5024765;28;20451;-80
2023/04/10 04:40:09;;;;;;;11.47;8.60;;;6.40;99.90;;;;;;5022492;28;20448;-80
2023/04/10 04:42:37;;;;;;;11.57;8.00;;;6.40;99.90;;;;;;5034157;28;20475;-79
2023/04/10 04:45:04;;;;;;;11.60;8.77;;;6.40;1.00;;;;;;5029161;28;20445;-79
2023/04/10 04:47:31;;;;;;;11.77;8.30;;;6.40;1.00;;;;;;5015190;28;20488;-78
2023/04/10 04:49:58;;;;;;;12.13;8.90;;;6.30;1.00;;;;;;5013082;28;20457;-78
2023/04/10 04:52:26;;;;;;;11.60;8.03;;;6.30;1.00;;;;;;5012097;28;20592;-79
2023/04/10 04:54:53;;;;;;;12.93;9.23;;;6.30;1.00;;;;;;5027986;28;20460;-80
2023/04/10 04:57:19;;;;;;;15.70;9.60;;;6.30;1.00;;;;;;5036510;28;20539;-78
2023/04/10 04:59:46;;;;;;;13.00;8.80;;;6.20;1.00;;;;;;5026343;28;20462;-79
2023/04/10 05:02:13;;;;;;;13.03;9.33;;;6.20;1.00;;;;;;5033719;28;20498;-80
2023/04/10 05:04:40;;;;;;;12.70;8.57;;;6.20;1.00;;;;;;5019284;28;20519;-80
2023/04/10 05:07:07;;;;;;;12.60;9.07;;;6.10;1.00;;;;;;5018961;28;20495;-81
2023/04/10 05:09:35;;;;;;;12.90;8.93;;;6.10;1.00;;;;;;5009258;28;21134;-80
2023/04/10 05:12:02;;;;;;;12.20;8.57;;;6.10;1.00;;;;;;5032106;28;20472;-79
2023/04/10 05:14:29;;;;;;;12.43;9.50;;;6.10;1.00;;;;;;5037207;28;20492;-79
2023/04/10 05:16:56;;;;;;;17.60;10.90;;;6.10;1.00;;;;;;5020511;28;20515;-81
2023/04/10 05:19:23;;;;;;;13.07;8.97;;;6.10;1.00;;;;;;5017395;28;20461;-78
2023/04/10 05:21:50;;;;;;;10.60;8.23;;;6.10;1.00;;;;;;5031115;28;20471;-79
2023/04/10 05:24:16;;;;;;;15.33;9.73;;;6.20;1.00;;;;;;5036063;28;21011;-78
2023/04/10 05:26:45;;;;;;;11.93;9.00;;;6.20;1.00;;;;;;5032702;28;20482;-77
2023/04/10 05:29:11;;;;;;;13.37;9.33;;;6.20;1.00;;;;;;5017914;28;20476;-77
2023/04/10 05:31:38;;;;;;;11.13;7.97;;;6.20;1.00;;;;;;5026445;28;20494;-80
2023/04/10 05:34:05;;;;;;;10.90;9.07;;;6.20;1.00;;;;;;4998278;28;20473;-81
2023/04/10 05:36:32;;;;;;;10.37;9.20;;;6.20;1.00;;;;;;5017366;28;20722;-80
2023/04/10 05:38:59;;;;;;;11.30;8.80;;;6.20;1.00;;;;;;5020773;28;20454;-80
2023/04/10 05:41:26;;;;;;;14.80;9.30;;;6.20;1.00;;;;;;5006539;28;20857;-79
2023/04/10 05:43:54;;;;;;;11.67;8.70;;;6.30;1.00;;;;;;5017013;28;20452;-78
2023/04/10 05:46:21;;;;;;;10.60;8.30;;;6.30;1.00;;;;;;5029113;28;20480;-77
2023/04/10 05:48:47;;;;;;;11.20;8.03;;;6.40;1.00;;;;;;5025513;28;20552;-77
2023/04/10 05:51:14;;;;;;;13.40;8.60;;;6.40;1.00;;;;;;5023731;28;20501;-77
2023/04/10 05:53:41;;;;;;;12.37;8.97;;;6.50;1.00;;;;;;5035037;28;20834;-81
2023/04/10 05:56:08;;;;;;;16.93;10.20;;;6.50;1.00;;;;;;5036514;28;20491;-80
2023/04/10 05:58:35;;;;;;;9.73;8.10;;;6.60;1.00;;;;;;5036158;28;20474;-79
2023/04/10 06:01:04;;;;;;;14.87;9.10;;;6.70;1.00;;;;;;5025698;28;20461;-80
2023/04/10 06:03:31;;;;;;;10.93;8.63;;;6.80;1.00;;;;;;5017044;28;21021;-80
2023/04/10 06:05:58;;;;;;;16.00;8.60;;;6.90;1.00;;;;;;5024435;28;20845;-80
2023/04/10 06:08:24;;;;;;;11.73;8.43;;;7.00;1.00;;;;;;5037077;28;20492;-80
2023/04/10 06:10:51;;;;;;;17.23;8.97;;;7.10;1.00;;;;;;5012394;28;20816;-79
2023/04/10 06:13:18;;;;;;;10.40;7.50;;;7.20;99.90;;;;;;5022860;28;20461;-80
2023/04/10 06:15:45;;;;;;;12.37;7.63;;;7.40;99.90;;;;;;5013311;28;20458;-78
2023/04/10 06:18:13;;;;;;;12.10;8.30;;;7.50;99.90;;;;;;4995434;28;20454;-77
2023/04/10 06:20:40;;;;;;;10.63;6.77;;;7.70;99.90;;;;;;4995932;28;20947;-79
2023/04/10 06:23:07;;;;;;;7.70;5.60;;;7.80;99.90;;;;;;4995563;28;20492;-78
2023/04/10 06:25:33;;;;;;;9.90;6.17;;;8.00;99.90;;;;;;5031476;28;20451;-78
2023/04/10 06:28:00;;;;;;;9.20;6.53;;;8.20;36.20;;;;;;5015160;28;20482;-77
2023/04/10 06:30:27;;;;;;;7.20;5.47;;;8.50;1.00;;;;;;5014427;28;20836;-78
2023/04/10 06:32:54;;;;;;;7.63;6.10;;;8.70;13.50;;;;;;5013674;28;20473;-79
2023/04/10 06:35:22;;;;;;;6.67;4.80;;;9.00;1.00;;;;;;5028730;28;20843;-78
2023/04/10 06:37:49;;;;;;;7.47;5.20;;;9.30;99.90;;;;;;5007581;28;20545;-79
2023/04/10 06:40:16;;;;;;;7.90;5.03;;;9.40;99.90;;;;;;5021007;28;20449;-77
2023/04/10 06:42:43;;;;;;;6.43;5.07;;;9.60;44.50;;;;;;5018742;28;20491;-78
2023/04/10 06:45:10;;;;;;;10.77;4.77;;;9.80;1.00;;;;;;5019981;28;20470;-78
2023/04/10 06:47:37;;;;;;;6.93;5.40;;;10.00;1.00;;;;;;5013438;28;20495;-77
2023/04/10 06:50:04;;;;;;;6.37;5.03;;;10.00;1.00;;;;;;5013657;28;20461;-79
2023/04/10 06:52:33;;;;;;;9.70;5.30;;;10.20;1.00;;;;;;5012725;28;20600;-77
2023/04/10 06:55:00;;;;;;;7.13;5.10;;;10.30;1.00;;;;;;5011132;28;20892;-77
2023/04/10 06:57:27;;;;;;;6.50;4.70;;;10.40;1.00;;;;;;5009660;28;20484;-77
2023/04/10 06:59:54;;;;;;;7.77;5.20;;;10.50;1.00;;;;;;5025172;28;20541;-78
2023/04/10 07:02:21;;;;;;;5.80;4.23;;;10.60;1.00;;;;;;5012347;28;20481;-77
2023/04/10 07:04:47;;;;;;;7.10;5.00;;;10.80;1.00;;;;;;5001061;28;20465;-77
2023/04/10 07:07:14;;;;;;;5.87;4.23;;;11.10;1.00;;;;;;5014297;28;20579;-79
2023/04/10 07:09:43;;;;;;;7.73;4.83;;;11.40;1.00;;;;;;5016476;28;20476;-77
2023/04/10 07:12:09;;;;;;;7.73;4.70;;;11.70;1.00;;;;;;5013376;28;20474;-78
2023/04/10 07:14:36;;;;;;;6.73;4.70;;;11.90;1.00;;;;;;5009584;28;20488;-77
2023/04/10 07:17:03;;;;;;;5.10;4.60;;;12.20;1.00;;;;;;5013438;28;20533;-77
2023/04/10 07:19:30;;;;;;;5.33;4.20;;;12.50;1.00;;;;;;5013055;28;20840;-78
2023/04/10 07:21:57;;;;;;;5.37;4.47;;;12.70;1.00;;;;;;5012801;28;20476;-79
2023/04/10 07:24:24;;;;;;;5.00;4.03;;;12.90;99.90;;;;;;5032774;28;20971;-77
2023/04/10 07:26:52;;;;;;;4.73;3.83;;;13.00;99.90;;;;;;5032866;28;20487;-78
2023/04/10 07:29:19;;;;;;;5.77;3.77;;;13.20;99.90;;;;;;5032548;28;20452;-78
2023/04/10 07:31:46;;;;;;;7.70;4.70;;;13.20;99.90;;;;;;5030789;28;20470;-78
2023/04/10 07:34:13;;;;;;;5.83;4.60;;;13.30;99.90;;;;;;5030251;28;20594;-78
2023/04/10 07:36:40;;;;;;;5.00;4.20;;;13.50;99.90;;;;;;5012754;28;20448;-77
2023/04/10 07:39:07;;;;;;;5.27;3.93;;;13.50;99.90;;;;;;5032933;28;20966;-78
2023/04/10 07:41:34;;;;;;;5.80;4.27;;;13.50;99.90;;;;;;5027307;28;20483;-79
2023/04/10 07:44:02;;;;;;;4.50;3.70;;;13.70;99.90;;;;;;5012561;28;20806;-78
2023/04/10 07:46:29;;;;;;;5.67;3.43;;;13.80;99.90;;;;;;5004244;28;20464;-77
2023/04/10 07:48:55;;;;;;;4.33;3.60;;;13.90;99.90;;;;;;5032492;28;20560;-77
2023/04/10 07:51:23;;;;;;;5.20;3.93;;;14.00;99.90;;;;;;5030615;28;20490;-78
2023/04/10 07:53:50;;;;;;;6.00;4.20;;;14.20;99.90;;;;;;5012235;28;20461;-77
2023/04/10 07:56:17;;;;;;;4.80;3.70;;;14.40;99.90;;;;;;5014268;28;21016;-82
2023/04/10 07:58:44;;;;;;;4.30;3.50;;;14.60;99.90;;;;;;5012930;28;20539;-79
2023/04/10 08:01:12;;;;;;;6.20;3.80;;;14.70;99.90;;;;;;5011748;28;20476;-78
2023/04/10 08:03:40;;;;;;;5.10;4.00;;;14.60;99.90;;;;;;5014693;28;20554;-78
2023/04/10 08:06:09;;;;;;;4.90;3.90;;;14.60;99.90;;;;;;5013893;28;20480;-78
2023/04/10 08:08:37;;;;;;;4.13;3.00;;;14.60;99.90;;;;;;5029526;28;20730;-77
2023/04/10 08:11:04;;;;;;;4.63;3.63;;;14.60;99.90;;;;;;5029819;28;20448;-78
2023/04/10 08:13:32;;;;;;;5.10;3.73;;;14.50;99.90;;;;;;5010216;28;20509;-79
2023/04/10 08:15:58;;;;;;;5.27;3.77;;;14.50;99.90;;;;;;5013152;28;20957;-79
2023/04/10 08:18:27;;;;;;;5.20;3.50;;;14.60;99.90;;;;;;5026387;28;20452;-79
2023/04/10 08:20:53;;;;;;;4.57;3.40;;;14.90;99.90;;;;;;5032663;28;20862;-79
2023/04/10 08:23:20;;;;;;;5.13;3.23;;;15.20;99.90;;;;;;5014856;28;20466;-79
2023/04/10 08:25:47;;;;;;;4.97;3.67;;;15.80;99.90;;;;;;5013879;28;20541;-79
2023/04/10 08:28:14;;;;;;;6.63;4.23;;;16.30;99.90;;;;;;5031322;28;20487;-79
2023/04/10 08:30:41;;;;;;;4.63;3.60;;;17.40;99.90;;;;;;5028599;28;20452;-80
2023/04/10 08:33:07;;;;;;;4.17;3.13;;;18.20;99.90;;;;;;5013349;28;20500;-79
2023/04/10 08:35:35;;;;;;;4.93;3.67;;;19.30;99.90;;;;;;5013108;28;20464;-80
2023/04/10 08:38:02;;;;;;;4.37;2.73;;;20.50;99.90;;;;;;4993177;28;20456;-79
2023/04/10 08:40:29;;;;;;;4.30;3.43;;;21.10;99.90;;;;;;4994464;28;20469;-78
2023/04/10 08:42:56;;;;;;;6.50;3.97;;;21.40;99.90;;;;;;5017647;28;20480;-79
2023/04/10 08:45:23;;;;;;;3.30;2.63;;;22.50;99.90;;;;;;5007305;28;20489;-79
2023/04/10 08:47:52;;;;;;;3.93;3.03;;;22.70;99.90;;;;;;5030163;28;20491;-80
2023/04/10 08:50:20;;;;;;;4.23;3.67;;;23.50;99.90;;;;;;5032519;28;20456;-80
2023/04/10 08:52:52;;;;;;;3.00;2.50;;;23.00;99.90;;;;;;5026347;28;20476;-80
2023/04/10 08:55:20;;;;;;;3.00;2.50;;;22.80;99.90;;;;;;5015759;28;20981;-80
2023/04/10 08:57:47;;;;;;;3.20;2.77;;;22.50;99.90;;;;;;5035510;28;20448;-79
2023/04/10 09:00:15;;;;;;;3.80;3.00;;;23.00;99.90;;;;;;5025141;28;20533;-79
2023/04/10 09:02:42;;;;;;;3.57;2.70;;;23.00;99.90;;;;;;5015438;28;20480;-80
2023/04/10 09:05:12;;;;;;;3.30;2.73;;;23.30;99.90;;;;;;5015794;28;20908;-79
2023/04/10 09:07:39;;;;;;;4.03;3.30;;;23.40;99.90;;;;;;5013961;28;20981;-81
2023/04/10 09:10:09;;;;;;;4.00;2.93;;;23.30;99.90;;;;;;5031584;28;20828;-79
2023/04/10 09:12:46;;;;;;;3.00;2.60;;;23.80;99.90;;;;;;5022991;28;20470;-79
2023/04/10 09:15:13;;;;;;;3.60;3.00;;;23.10;99.90;;;;;;5014977;28;20495;-78
2023/04/10 09:17:55;;;;;;;3.70;2.63;;;22.80;99.90;;;;;;5014146;28;20458;-78
2023/04/10 09:20:23;;;;;;;2.70;2.30;;;22.50;99.90;;;;;;5022509;28;20867;-80
2023/04/10 09:22:50;;;;;;;2.63;2.23;;;21.70;99.90;;;;;;5010351;28;20482;-80
2023/04/10 09:25:37;;;;;;;3.30;2.30;;;22.00;99.90;;;;;;5010190;28;20460;-79
2023/04/10 09:28:05;;;;;;;3.13;2.77;;;21.80;99.90;;;;;;5017997;28;20469;-80
2023/04/10 09:30:35;;;;;;;2.70;2.00;;;21.90;99.90;;;;;;5019476;28;20461;-81
2023/04/10 09:33:02;;;;;;;3.40;2.50;;;22.00;99.90;;;;;;5012573;28;20505;-80
2023/04/10 09:35:38;;;;;;;3.80;2.60;;;22.10;99.90;;;;;;5006126;28;20450;-80
2023/04/10 09:38:15;;;;;;;3.07;2.33;;;22.30;99.90;;;;;;5034799;28;20454;-80
2023/04/10 09:40:44;;;;;;;4.90;3.17;;;22.10;99.90;;;;;;5030792;28;20445;-79
2023/04/10 09:43:18;;;;;;;3.90;2.30;;;21.70;99.90;;;;;;5020407;28;20459;-80
2023/04/10 09:45:52;;;;;;;3.63;2.33;;;21.80;99.90;;;;;;5026679;28;20452;-79
2023/04/10 09:48:20;;;;;;;3.00;2.17;;;21.80;99.90;;;;;;5024838;28;20589;-81
2023/04/10 09:50:47;;;;;;;2.60;2.07;;;21.10;99.90;;;;;;5034028;28;20521;-79
2023/04/10 09:53:15;;;;;;;2.90;2.30;;;20.50;99.90;;;;;;5050964;22;20499;-85
2023/04/10 09:55:44;;;;;;;3.40;2.30;;;21.00;99.90;;;;;;5044876;28;20461;-83
2023/04/10 09:58:11;;;;;;;3.40;2.67;;;21.40;99.90;;;;;;5040722;28;20445;-85
2023/04/10 10:00:41;;;;;;;3.20;2.40;;;21.10;99.90;;;;;;5040773;28;20453;-83
2023/04/10 10:03:10;;;;;;;3.03;2.70;;;21.70;99.90;;;;;;5055999;28;20894;-83
2023/04/10 10:05:40;;;;;;;2.50;2.00;;;22.00;99.90;;;;;;5060544;28;20444;-87
2023/04/10 10:08:08;;;;;;;3.00;2.37;;;22.20;99.90;;;;;;5024848;28;20525;-83
2023/04/10 10:10:39;;;;;;;3.50;2.10;;;22.60;99.90;;;;;;5053292;28;20484;-82
2023/04/10 10:13:10;;;;;;;3.03;2.20;;;23.20;99.90;;;;;;5042744;28;20476;-84
2023/04/10 10:15:44;;;;;;;3.10;2.80;;;23.30;99.90;;;;;;5041255;28;20456;-83
2023/04/10 10:18:31;;;;;;;3.37;2.57;;;23.50;99.90;;;;;;5040150;28;20486;-83
2023/04/10 10:20:58;;;;;;;3.23;2.73;;;22.90;99.90;;;;;;5027800;28;20536;-84
2023/04/10 10:23:25;;;;;;;3.73;2.00;;;23.00;99.90;;;;;;5020818;28;20811;-84
2023/04/10 10:25:54;;;;;;;3.53;2.93;;;22.50;99.90;;;;;;5049660;28;20457;-84
2023/04/10 10:28:24;;;;;;;2.97;2.37;;;22.20;99.90;;;;;;5050851;28;20485;-83
2023/04/10 10:30:54;;;;;;;3.33;2.27;;;22.30;99.90;;;;;;5028922;28;20536;-85
2023/04/10 10:33:21;;;;;;;3.40;2.60;;;22.40;99.90;;;;;;5021443;28;20850;-85
2023/04/10 10:35:49;;;;;;;3.13;2.77;;;22.10;99.90;;;;;;5021440;28;20533;-84
2023/04/10 10:38:17;;;;;;;3.40;2.70;;;22.20;99.90;;;;;;5052637;28;20460;-83
2023/04/10 10:40:51;;;;;;;3.27;2.70;;;22.10;99.90;;;;;;5050762;28;20457;-83
2023/04/10 10:43:24;;;;;;;3.00;2.43;;;21.90;99.90;;;;;;5041634;28;20471;-84
2023/04/10 10:45:58;;;;;;;2.80;2.50;;;22.60;99.90;;;;;;5039988;28;20452;-86
2023/04/10 10:48:25;;;;;;;2.83;2.30;;;23.30;99.90;;;;;;5057121;28;20478;-84
2023/04/10 10:50:55;;;;;;;3.33;2.60;;;24.80;99.90;;;;;;5037417;28;20454;-86
2023/04/10 10:53:40;;;;;;;3.10;2.43;;;25.70;99.90;;;;;;5021709;28;20589;-85
2023/04/10 10:56:35;;;;;;;2.50;2.00;;;25.20;99.90;;;;;;5060601;28;20490;-83
2023/04/10 10:59:04;;;;;;;3.40;2.60;;;24.20;99.90;;;;;;5053779;28;20451;-83
2023/04/10 11:01:30;;;;;;;3.73;2.50;;;24.00;99.90;;;;;;5060651;28;20456;-84
2023/04/10 11:03:58;;;;;;;2.87;2.40;;;24.00;99.90;;;;;;5061369;28;20475;-85
2023/04/10 11:06:51;;;;;;;2.70;2.30;;;24.80;99.90;;;;;;5061496;28;20956;-84
2023/04/10 11:09:44;;;;;;;2.70;2.40;;;25.40;99.90;;;;;;5042298;28;20477;-84
2023/04/10 11:12:11;;;;;;;3.07;2.77;;;25.30;99.90;;;;;;5040437;28;20472;-83
2023/04/10 11:14:40;;;;;;;3.70;2.90;;;25.70;99.90;;;;;;5041653;28;20897;-83
2023/04/10 11:17:07;;;;;;;3.07;2.63;;;25.90;99.90;;;;;;5040750;28;20523;-85
2023/04/10 11:19:59;;;;;;;3.57;2.63;;;26.00;99.90;;;;;;5052149;28;20452;-84
2023/04/10 11:22:27;;;;;;;3.37;2.37;;;26.80;99.90;;;;;;5055727;28;20985;-85
2023/04/10 11:24:59;;;;;;;3.20;2.50;;;26.00;99.90;;;;;;5029257;28;20446;-85
2023/04/10 11:27:47;;;;;;;3.20;2.30;;;25.70;99.90;;;;;;5050042;28;20509;-83
2023/04/10 11:30:32;;;;;;;3.20;2.90;;;25.00;99.90;;;;;;5059733;28;20440;-84
2023/04/10 11:33:01;;;;;;;3.07;2.60;;;25.00;99.90;;;;;;5059158;28;20566;-82
2023/04/10 11:35:30;;;;;;;2.77;2.30;;;24.40;99.90;;;;;;5020128;28;20544;-83
2023/04/10 11:38:17;;;;;;;3.87;2.80;;;24.60;99.90;;;;;;5020859;28;20460;-83
2023/04/10 11:41:03;;;;;;;3.13;2.83;;;24.90;99.90;;;;;;5024849;28;20464;-84
2023/04/10 11:43:30;;;;;;;3.37;2.70;;;24.70;99.90;;;;;;5051008;28;20924;-85
2023/04/10 11:46:03;;;;;;;3.40;2.90;;;24.20;99.90;;;;;;5039352;28;20463;-85
2023/04/10 11:48:30;;;;;;;3.60;2.60;;;24.20;99.90;;;;;;5038659;28;20488;-83
2023/04/10 11:50:58;;;;;;;3.40;2.50;;;24.10;99.90;;;;;;5038971;28;20551;-84
2023/04/10 11:53:26;;;;;;;4.13;2.60;;;24.00;99.90;;;;;;5039879;28;21000;-83
2023/04/10 11:55:52;;;;;;;3.40;2.57;;;24.40;99.90;;;;;;5045411;28;20491;-84
2023/04/10 11:58:27;;;;;;;3.40;2.77;;;24.90;99.90;;;;;;5051585;28;20464;-85
2023/04/10 12:00:58;;;;;;;3.40;2.93;;;24.80;99.90;;;;;;5038441;28;20441;-85
2023/04/10 12:03:38;;;;;;;3.10;2.70;;;24.60;99.90;;;;;;5038898;28;20487;-83
2023/04/10 12:06:08;;;;;;;2.83;2.53;;;25.10;99.90;;;;;;5039072;28;20452;-85
2023/04/10 12:08:36;;;;;;;3.57;2.40;;;25.20;99.90;;;;;;5039477;28;20493;-84
2023/04/10 12:11:06;;;;;;;2.80;2.23;;;26.20;99.90;;;;;;5047547;28;20458;-83
2023/04/10 12:13:33;;;;;;;4.47;2.67;;;25.70;99.90;;;;;;5060604;28;20833;-83
2023/04/10 12:16:01;;;;;;;4.10;3.30;;;25.50;99.90;;;;;;5061080;28;20456;-83
2023/04/10 12:18:32;;;;;;;3.03;2.30;;;26.20;99.90;;;;;;5060684;28;21006;-83
2023/04/10 12:21:00;;;;;;;2.83;2.30;;;26.60;99.90;;;;;;5060699;28;20519;-84
2023/04/10 12:23:29;;;;;;;2.67;2.30;;;27.00;99.90;;;;;;5060136;28;20511;-84
2023/04/10 12:26:14;;;;;;;2.83;2.37;;;27.20;99.90;;;;;;5059807;28;20555;-84
2023/04/10 12:28:49;;;;;;;2.80;2.30;;;26.80;99.90;;;;;;5060433;28;20586;-84
2023/04/10 12:31:16;;;;;;;3.67;2.47;;;26.50;99.90;;;;;;5060054;28;20929;-85
2023/04/10 12:33:45;;;;;;;2.97;2.50;;;26.70;99.90;;;;;;5059630;28;20840;-84
2023/04/10 12:36:22;;;;;;;2.47;2.20;;;26.50;99.90;;;;;;5050706;28;20444;-84
2023/04/10 12:38:49;;;;;;;2.40;2.20;;;26.20;99.90;;;;;;5060895;28;20480;-83
2023/04/10 12:41:27;;;;;;;3.03;2.30;;;25.50;99.90;;;;;;5059686;28;20459;-83
2023/04/10 12:44:06;;;;;;;3.73;1.90;;;25.50;99.90;;;;;;5060869;28;20515;-84
2023/04/10 12:46:33;;;;;;;3.40;1.93;;;25.70;99.90;;;;;;5059461;28;20451;-84
2023/04/10 12:49:09;;;;;;;2.70;1.90;;;25.40;99.90;;;;;;5059431;28;20444;-83
2023/04/10 12:51:44;;;;;;;3.17;1.70;;;25.20;99.90;;;;;;5057959;28;20925;-83
2023/04/10 12:54:11;;;;;;;2.40;1.80;;;25.20;99.90;;;;;;5058699;28;20530;-83
2023/04/10 12:56:42;;;;;;;2.33;1.60;;;25.30;99.90;;;;;;5058317;28;20587;-83